createdAt,value
2019-02-28T00:03:11.743Z,98143.00
2019-02-28T00:08:18.314Z,98131.00
2019-02-28T00:13:24.754Z,98139.00
2019-02-28T00:19:04.137Z,98118.00
2019-02-28T00:24:10.645Z,98120.00
2019-02-28T00:29:17.248Z,98107.00
2019-02-28T00:34:24.702Z,98097.00
2019-02-28T00:39:34.651Z,98089.00
2019-02-28T00:44:54.229Z,98071.00
2019-02-28T00:50:00.787Z,98070.00
2019-02-28T00:55:36.028Z,98059.00
2019-02-28T01:00:42.832Z,98048.00
2019-02-28T01:05:48.884Z,98029.00
2019-02-28T01:10:55.851Z,98044.00
2019-02-28T01:16:04.099Z,98039.00
2019-02-28T01:21:10.882Z,98026.00
2019-02-28T01:26:17.322Z,98001.00
2019-02-28T01:31:24.098Z,98004.00
2019-02-28T01:36:30.511Z,97999.00
2019-02-28T01:41:37.949Z,97990.00
2019-02-28T01:46:43.951Z,97981.00
2019-02-28T01:51:49.868Z,97969.00
2019-02-28T01:56:56.745Z,97982.00
2019-02-28T02:02:06.645Z,97957.00
2019-02-28T02:07:13.486Z,97958.00
2019-02-28T02:12:20.382Z,97956.00
2019-02-28T02:17:27.185Z,97952.00
2019-02-28T02:22:33.844Z,97939.00
2019-02-28T02:27:58.994Z,97929.00
2019-02-28T02:33:05.852Z,97918.00
2019-02-28T02:38:12.574Z,97924.00
2019-02-28T02:43:21.989Z,97918.00
2019-02-28T02:48:27.374Z,97897.00
2019-02-28T02:53:41.533Z,97885.00
2019-02-28T02:58:41.525Z,97879.00
2019-02-28T03:03:47.387Z,97855.00
2019-02-28T03:08:54.318Z,97862.00
2019-02-28T03:14:01.090Z,97860.00
2019-02-28T03:19:07.589Z,97862.00
2019-02-28T03:24:16.261Z,97853.00
2019-02-28T03:29:22.928Z,97852.00
2019-02-28T03:34:29.838Z,97855.00
2019-02-28T03:39:36.547Z,97846.00
2019-02-28T03:45:02.618Z,97833.00
2019-02-28T03:50:11.721Z,97828.00
2019-02-28T03:55:18.182Z,97832.00
2019-02-28T04:00:32.622Z,97836.00
2019-02-28T04:05:35.383Z,97833.00
2019-02-28T04:10:42.274Z,97835.00
2019-02-28T04:16:07.443Z,97832.00
2019-02-28T04:20:56.721Z,97828.00
2019-02-28T04:26:03.431Z,97812.00
2019-02-28T04:31:11.402Z,97810.00
2019-02-28T04:36:18.220Z,97812.00
2019-02-28T04:41:25.022Z,97804.00
2019-02-28T04:46:32.609Z,97796.00
2019-02-28T04:51:40.153Z,97803.00
2019-02-28T04:56:47.280Z,97798.00
2019-02-28T05:01:55.573Z,97787.00
2019-02-28T05:07:02.656Z,97789.00
2019-02-28T05:12:09.701Z,97785.00
2019-02-28T05:17:19.322Z,97796.00
2019-02-28T05:22:27.748Z,97781.00
2019-02-28T05:27:36.446Z,97781.00
2019-02-28T05:32:44.613Z,97783.00
2019-02-28T05:37:50.957Z,97785.00
2019-02-28T05:42:58.399Z,97781.00
2019-02-28T05:48:28.097Z,97774.00
2019-02-28T05:53:35.314Z,97773.00
2019-02-28T05:58:43.095Z,97768.00
2019-02-28T06:03:49.191Z,97772.00
2019-02-28T06:08:57.114Z,97772.00
2019-02-28T06:14:04.073Z,97782.00
2019-02-28T06:19:11.261Z,97778.00
2019-02-28T06:24:18.259Z,97766.00
2019-02-28T06:29:24.948Z,97775.00
2019-02-28T06:34:33.363Z,97776.00
2019-02-28T06:39:40.470Z,97781.00
2019-02-28T06:44:46.614Z,97781.00
2019-02-28T06:49:54.341Z,97776.00
2019-02-28T06:55:02.327Z,97767.00
2019-02-28T07:00:17.807Z,97756.00
2019-02-28T07:05:26.207Z,97776.00
2019-02-28T07:10:33.679Z,97781.00
2019-02-28T07:15:40.579Z,97776.00
2019-02-28T07:20:47.263Z,97767.00
2019-02-28T07:25:54.665Z,97762.00
2019-02-28T07:31:01.706Z,97761.00
2019-02-28T07:36:10.515Z,97759.00
2019-02-28T07:41:20.229Z,97771.00
2019-02-28T07:46:28.200Z,97770.00
2019-02-28T07:51:35.443Z,97756.00
2019-02-28T07:56:44.260Z,97770.00
2019-02-28T08:01:52.285Z,97758.00
2019-02-28T08:06:59.705Z,97767.00
2019-02-28T08:12:07.734Z,97769.00
2019-02-28T08:17:16.058Z,97762.00
2019-02-28T08:22:24.236Z,97758.00
2019-02-28T08:27:33.316Z,97751.00
2019-02-28T08:32:43.785Z,97762.00
2019-02-28T08:37:48.059Z,97761.00
2019-02-28T08:42:55.815Z,97761.00
2019-02-28T08:48:03.080Z,97753.00
2019-02-28T08:53:12.396Z,97762.00
2019-02-28T08:58:18.735Z,97745.00
2019-02-28T09:03:27.310Z,97746.00
2019-02-28T09:08:35.594Z,97742.00
2019-02-28T09:13:42.970Z,97738.00
2019-02-28T09:18:49.775Z,97737.00
2019-02-28T09:23:58.028Z,97731.00
2019-02-28T09:29:05.027Z,97730.00
2019-02-28T09:34:16.112Z,97729.00
2019-02-28T09:39:24.604Z,97729.00
2019-02-28T09:44:32.533Z,97723.00
2019-02-28T09:49:39.802Z,97727.00
2019-02-28T09:54:46.968Z,97723.00
2019-02-28T09:59:53.258Z,97723.00
2019-02-28T10:05:02.904Z,97738.00
2019-02-28T10:10:20.791Z,97738.00
2019-02-28T10:15:29.598Z,97732.00
2019-02-28T10:20:41.929Z,97742.00
2019-02-28T10:25:48.226Z,97740.00
2019-02-28T10:30:57.099Z,97736.00
2019-02-28T10:36:04.063Z,97734.00
2019-02-28T10:41:11.175Z,97751.00
2019-02-28T10:46:20.017Z,97745.00
2019-02-28T10:51:27.021Z,97724.00
2019-02-28T10:56:34.054Z,97735.00
2019-02-28T11:01:41.963Z,97721.00
2019-02-28T11:06:48.869Z,97730.00
2019-02-28T11:11:56.133Z,97717.00
2019-02-28T11:17:03.602Z,97727.00
2019-02-28T11:22:11.488Z,97713.00
2019-02-28T11:27:19.541Z,97706.00
2019-02-28T11:32:29.369Z,97705.00
2019-02-28T11:37:35.916Z,97711.00
2019-02-28T11:42:43.949Z,97710.00
2019-02-28T11:47:52.799Z,97702.00
2019-02-28T11:53:04.892Z,97705.00
2019-02-28T11:58:08.809Z,97697.00
2019-02-28T12:03:16.130Z,97709.00
2019-02-28T12:08:23.536Z,97688.00
2019-02-28T12:13:30.694Z,97679.00
2019-02-28T12:18:41.563Z,97699.00
2019-02-28T12:23:47.725Z,97686.00
2019-02-28T12:28:54.428Z,97686.00
2019-02-28T12:34:01.655Z,97690.00
2019-02-28T12:39:09.706Z,97679.00
2019-02-28T12:44:17.137Z,97681.00
2019-02-28T12:49:26.168Z,97697.00
2019-02-28T12:54:34.234Z,97701.00
2019-02-28T12:59:45.957Z,97697.00
2019-02-28T13:04:49.773Z,97685.00
2019-02-28T13:09:57.677Z,97688.00
2019-02-28T13:15:08.991Z,97673.00
2019-02-28T13:20:33.692Z,97680.00
2019-02-28T13:25:40.707Z,97671.00
2019-02-28T13:30:50.182Z,97663.00
2019-02-28T13:35:55.883Z,97664.00
2019-02-28T13:41:02.875Z,97658.00
2019-02-28T13:46:12.967Z,97640.00
2019-02-28T13:51:18.905Z,97621.00
2019-02-28T13:56:29.049Z,97633.00
2019-02-28T14:01:34.659Z,97631.00
2019-02-28T14:06:41.628Z,97627.00
2019-02-28T14:11:48.332Z,97625.00
2019-02-28T14:16:58.330Z,97621.00
2019-02-28T14:22:04.819Z,97632.00
2019-02-28T14:27:11.859Z,97634.00
2019-02-28T14:32:19.077Z,97627.00
2019-02-28T14:37:26.005Z,97630.00
2019-02-28T14:42:32.928Z,97630.00
2019-02-28T14:47:40.026Z,97627.00
2019-02-28T14:52:46.722Z,97632.00
2019-02-28T14:57:55.082Z,97631.00
2019-02-28T15:03:03.023Z,97640.00
2019-02-28T15:08:11.947Z,97632.00
2019-02-28T15:13:20.848Z,97635.00
2019-02-28T15:18:28.096Z,97630.00
2019-02-28T15:23:35.108Z,97635.00
2019-02-28T15:28:42.070Z,97636.00
2019-02-28T15:33:48.322Z,97643.00
2019-02-28T15:38:56.651Z,97640.00
2019-02-28T15:44:03.632Z,97643.00
2019-02-28T15:49:10.983Z,97628.00
2019-02-28T15:54:21.731Z,97627.00
2019-02-28T15:59:27.823Z,97639.00
2019-02-28T16:04:35.494Z,97623.00
2019-02-28T16:09:43.788Z,97620.00
2019-02-28T16:14:51.600Z,97631.00
2019-02-28T16:20:01.175Z,97625.00
2019-02-28T16:25:21.760Z,97649.00
2019-02-28T16:30:32.167Z,97642.00
2019-02-28T16:35:39.213Z,97647.00
2019-02-28T16:40:45.288Z,97646.00
2019-02-28T16:46:15.463Z,97653.00
2019-02-28T16:51:21.884Z,97657.00
2019-02-28T16:56:29.040Z,97653.00
2019-02-28T17:01:36.054Z,97668.00
2019-02-28T17:06:43.007Z,97664.00
2019-02-28T17:12:08.413Z,97669.00
2019-02-28T17:17:16.995Z,97663.00
2019-02-28T17:22:27.017Z,97672.00
2019-02-28T17:27:34.840Z,97680.00
2019-02-28T17:32:42.459Z,97679.00
2019-02-28T17:37:48.688Z,97690.00
2019-02-28T17:42:54.686Z,97699.00
2019-02-28T17:48:49.102Z,97706.00
2019-02-28T17:54:25.625Z,97707.00
2019-02-28T17:59:51.460Z,97711.00
2019-02-28T18:05:36.472Z,97697.00
2019-02-28T18:11:36.651Z,97701.00
2019-02-28T18:17:05.698Z,97703.00
2019-02-28T18:22:38.705Z,97713.00
2019-02-28T18:28:26.397Z,97695.00
2019-02-28T18:33:33.548Z,97710.00
2019-02-28T18:38:40.406Z,97699.00
2019-02-28T18:43:46.358Z,97701.00
2019-02-28T18:48:55.650Z,97697.00
2019-02-28T18:54:02.759Z,97692.00
2019-02-28T18:59:09.999Z,97689.00
2019-02-28T19:04:17.043Z,97698.00
2019-02-28T19:09:24.309Z,97697.00
2019-02-28T19:14:31.113Z,97691.00
2019-02-28T19:19:37.654Z,97696.00
2019-02-28T19:24:44.065Z,97703.00
2019-02-28T19:29:50.060Z,97711.00
2019-02-28T19:34:56.849Z,97698.00
2019-02-28T19:40:03.584Z,97703.00
2019-02-28T19:45:42.724Z,97699.00
2019-02-28T19:50:50.181Z,97711.00
2019-02-28T19:55:57.197Z,97704.00
2019-02-28T20:01:05.494Z,97721.00
2019-02-28T20:06:12.435Z,97716.00
2019-02-28T20:11:19.207Z,97724.00
2019-02-28T20:16:25.847Z,97718.00
2019-02-28T20:21:32.455Z,97717.00
2019-02-28T20:26:39.677Z,97714.00
2019-02-28T20:31:45.637Z,97719.00
2019-02-28T20:36:52.490Z,97713.00
2019-02-28T20:41:59.700Z,97720.00
2019-02-28T20:47:06.831Z,97723.00
2019-02-28T20:52:14.390Z,97718.00
2019-02-28T20:57:21.627Z,97712.00
2019-02-28T21:02:28.610Z,97708.00
2019-02-28T21:07:35.542Z,97708.00
2019-02-28T21:12:42.504Z,97700.00
2019-02-28T21:17:48.558Z,97705.00
2019-02-28T21:22:54.621Z,97716.00
2019-02-28T21:28:01.666Z,97720.00
2019-02-28T21:33:09.627Z,97718.00
2019-02-28T21:38:16.412Z,97702.00
2019-02-28T21:43:23.053Z,97711.00
2019-02-28T21:48:31.322Z,97706.00
2019-02-28T21:53:38.184Z,97704.00
2019-02-28T21:58:44.103Z,97710.00
2019-02-28T22:03:50.172Z,97707.00
2019-02-28T22:08:56.878Z,97698.00
2019-02-28T22:14:03.535Z,97701.00
2019-02-28T22:19:10.169Z,97704.00
2019-02-28T22:24:17.028Z,97707.00
2019-02-28T22:29:24.711Z,97701.00
2019-02-28T22:34:34.092Z,97701.00
2019-02-28T22:39:42.167Z,97698.00
2019-02-28T22:44:48.085Z,97695.00
2019-02-28T22:49:54.030Z,97692.00
2019-02-28T22:55:03.024Z,97697.00
2019-02-28T23:00:29.216Z,97700.00
2019-02-28T23:05:37.301Z,97694.00
2019-02-28T23:10:43.976Z,97687.00
2019-02-28T23:15:49.913Z,97690.00
2019-02-28T23:20:56.860Z,97686.00
2019-02-28T23:26:12.214Z,97674.00
2019-02-28T23:31:39.457Z,97669.00
2019-02-28T23:36:46.415Z,97674.00
2019-02-28T23:41:55.173Z,97675.00
2019-02-28T23:47:01.933Z,97665.00
2019-02-28T23:52:08.842Z,97666.00
2019-02-28T23:57:15.666Z,97661.00
